sensor_id;sensor_type;location;lat;lon;timestamp;P1;durP1;ratioP1;P2;durP2;ratioP2
22184;SDS011;11258;52.516;13.318;2022-07-21T00:01:34;9.38;;;6.25;;
22184;SDS011;11258;52.516;13.318;2022-07-21T00:04:00;6.60;;;5.90;;
22184;SDS011;11258;52.516;13.318;2022-07-21T00:06:26;10.57;;;5.78;;
22184;SDS011;11258;52.516;13.318;2022-07-21T00:08:52;11.20;;;6.38;;
22184;SDS011;11258;52.516;13.318;2022-07-21T00:11:17;8.85;;;6.20;;
22184;SDS011;11258;52.516;13.318;2022-07-21T00:13:43;8.25;;;5.93;;
22184;SDS011;11258;52.516;13.318;2022-07-21T00:16:09;8.55;;;6.60;;
22184;SDS011;11258;52.516;13.318;2022-07-21T00:18:34;6.63;;;5.70;;
22184;SDS011;11258;52.516;13.318;2022-07-21T00:21:00;6.53;;;5.60;;
22184;SDS011;11258;52.516;13.318;2022-07-21T00:23:26;11.18;;;6.47;;
22184;SDS011;11258;52.516;13.318;2022-07-21T00:25:53;9.98;;;6.60;;
22184;SDS011;11258;52.516;13.318;2022-07-21T00:28:20;10.93;;;6.90;;
22184;SDS011;11258;52.516;13.318;2022-07-21T00:30:46;10.73;;;5.97;;
22184;SDS011;11258;52.516;13.318;2022-07-21T00:33:12;12.18;;;6.50;;
22184;SDS011;11258;52.516;13.318;2022-07-21T00:35:37;11.90;;;7.00;;
22184;SDS011;11258;52.516;13.318;2022-07-21T00:38:03;6.88;;;6.20;;
22184;SDS011;11258;52.516;13.318;2022-07-21T00:40:29;9.23;;;6.63;;
22184;SDS011;11258;52.516;13.318;2022-07-21T00:42:55;8.60;;;6.47;;
22184;SDS011;11258;52.516;13.318;2022-07-21T00:45:21;8.68;;;6.43;;
22184;SDS011;11258;52.516;13.318;2022-07-21T00:47:46;11.85;;;6.38;;
22184;SDS011;11258;52.516;13.318;2022-07-21T00:50:13;10.73;;;6.93;;
22184;SDS011;11258;52.516;13.318;2022-07-21T00:52:40;11.45;;;6.70;;
22184;SDS011;11258;52.516;13.318;2022-07-21T00:55:06;12.23;;;6.40;;
22184;SDS011;11258;52.516;13.318;2022-07-21T00:57:35;10.45;;;6.78;;
22184;SDS011;11258;52.516;13.318;2022-07-21T01:00:03;11.68;;;6.57;;
22184;SDS011;11258;52.516;13.318;2022-07-21T01:02:30;8.63;;;6.50;;
22184;SDS011;11258;52.516;13.318;2022-07-21T01:04:58;8.73;;;6.85;;
22184;SDS011;11258;52.516;13.318;2022-07-21T01:07:24;12.05;;;6.40;;
22184;SDS011;11258;52.516;13.318;2022-07-21T01:09:49;10.32;;;6.80;;
22184;SDS011;11258;52.516;13.318;2022-07-21T01:12:15;7.72;;;6.60;;
22184;SDS011;11258;52.516;13.318;2022-07-21T01:14:41;8.50;;;6.10;;
22184;SDS011;11258;52.516;13.318;2022-07-21T01:17:06;14.77;;;7.13;;
22184;SDS011;11258;52.516;13.318;2022-07-21T01:19:32;9.73;;;6.60;;
22184;SDS011;11258;52.516;13.318;2022-07-21T01:21:58;13.10;;;6.50;;
22184;SDS011;11258;52.516;13.318;2022-07-21T01:24:24;10.70;;;6.00;;
22184;SDS011;11258;52.516;13.318;2022-07-21T01:26:50;7.57;;;6.00;;
22184;SDS011;11258;52.516;13.318;2022-07-21T01:29:17;9.65;;;6.00;;
22184;SDS011;11258;52.516;13.318;2022-07-21T01:31:44;8.50;;;6.35;;
22184;SDS011;11258;52.516;13.318;2022-07-21T01:34:11;16.73;;;7.00;;
22184;SDS011;11258;52.516;13.318;2022-07-21T01:36:36;9.95;;;6.18;;
22184;SDS011;11258;52.516;13.318;2022-07-21T01:39:03;10.02;;;6.90;;
22184;SDS011;11258;52.516;13.318;2022-07-21T01:41:48;10.00;;;6.45;;
22184;SDS011;11258;52.516;13.318;2022-07-21T01:44:13;8.00;;;5.82;;
22184;SDS011;11258;52.516;13.318;2022-07-21T01:46:40;10.23;;;6.22;;
22184;SDS011;11258;52.516;13.318;2022-07-21T01:49:09;10.25;;;6.25;;
22184;SDS011;11258;52.516;13.318;2022-07-21T01:51:35;11.40;;;6.43;;
22184;SDS011;11258;52.516;13.318;2022-07-21T01:54:00;8.68;;;6.05;;
22184;SDS011;11258;52.516;13.318;2022-07-21T01:56:26;10.98;;;6.40;;
22184;SDS011;11258;52.516;13.318;2022-07-21T01:58:53;6.47;;;5.65;;
22184;SDS011;11258;52.516;13.318;2022-07-21T02:01:20;9.90;;;6.88;;
22184;SDS011;11258;52.516;13.318;2022-07-21T02:03:47;9.90;;;6.25;;
22184;SDS011;11258;52.516;13.318;2022-07-21T02:06:14;8.20;;;5.72;;
22184;SDS011;11258;52.516;13.318;2022-07-21T02:08:40;8.65;;;6.20;;
22184;SDS011;11258;52.516;13.318;2022-07-21T02:11:07;8.70;;;6.45;;
22184;SDS011;11258;52.516;13.318;2022-07-21T02:13:33;11.45;;;6.32;;
22184;SDS011;11258;52.516;13.318;2022-07-21T02:15:59;8.85;;;5.80;;
22184;SDS011;11258;52.516;13.318;2022-07-21T02:18:25;10.60;;;7.32;;
22184;SDS011;11258;52.516;13.318;2022-07-21T02:20:50;9.30;;;6.00;;
22184;SDS011;11258;52.516;13.318;2022-07-21T02:23:17;7.07;;;5.18;;
22184;SDS011;11258;52.516;13.318;2022-07-21T02:25:43;6.72;;;5.90;;
22184;SDS011;11258;52.516;13.318;2022-07-21T02:28:09;8.32;;;6.05;;
22184;SDS011;11258;52.516;13.318;2022-07-21T02:30:35;9.88;;;6.15;;
22184;SDS011;11258;52.516;13.318;2022-07-21T02:33:01;6.75;;;5.65;;
22184;SDS011;11258;52.516;13.318;2022-07-21T02:35:27;9.98;;;7.07;;
22184;SDS011;11258;52.516;13.318;2022-07-21T02:37:52;9.07;;;6.05;;
22184;SDS011;11258;52.516;13.318;2022-07-21T02:40:18;9.98;;;6.18;;
22184;SDS011;11258;52.516;13.318;2022-07-21T02:42:44;10.15;;;5.90;;
22184;SDS011;11258;52.516;13.318;2022-07-21T02:45:10;10.30;;;5.72;;
22184;SDS011;11258;52.516;13.318;2022-07-21T02:50:17;9.43;;;5.88;;
22184;SDS011;11258;52.516;13.318;2022-07-21T02:52:44;12.57;;;5.32;;
22184;SDS011;11258;52.516;13.318;2022-07-21T02:55:10;6.95;;;5.80;;
22184;SDS011;11258;52.516;13.318;2022-07-21T02:57:36;11.60;;;5.82;;
22184;SDS011;11258;52.516;13.318;2022-07-21T03:00:03;10.10;;;5.90;;
22184;SDS011;11258;52.516;13.318;2022-07-21T03:02:30;12.32;;;7.80;;
22184;SDS011;11258;52.516;13.318;2022-07-21T03:04:55;10.95;;;6.00;;
22184;SDS011;11258;52.516;13.318;2022-07-21T03:07:21;8.15;;;5.78;;
22184;SDS011;11258;52.516;13.318;2022-07-21T03:09:46;9.80;;;5.68;;
22184;SDS011;11258;52.516;13.318;2022-07-21T03:12:12;7.32;;;5.90;;
22184;SDS011;11258;52.516;13.318;2022-07-21T03:14:38;10.50;;;6.22;;
22184;SDS011;11258;52.516;13.318;2022-07-21T03:17:03;9.25;;;5.72;;
22184;SDS011;11258;52.516;13.318;2022-07-21T03:19:29;6.68;;;5.50;;
22184;SDS011;11258;52.516;13.318;2022-07-21T03:21:54;8.63;;;5.38;;
22184;SDS011;11258;52.516;13.318;2022-07-21T03:24:20;8.98;;;5.70;;
22184;SDS011;11258;52.516;13.318;2022-07-21T03:26:45;9.07;;;5.53;;
22184;SDS011;11258;52.516;13.318;2022-07-21T03:29:11;9.63;;;6.13;;
22184;SDS011;11258;52.516;13.318;2022-07-21T03:31:37;9.93;;;5.82;;
22184;SDS011;11258;52.516;13.318;2022-07-21T03:34:02;12.30;;;6.55;;
22184;SDS011;11258;52.516;13.318;2022-07-21T03:36:28;6.85;;;5.38;;
22184;SDS011;11258;52.516;13.318;2022-07-21T03:38:54;6.15;;;5.55;;
22184;SDS011;11258;52.516;13.318;2022-07-21T03:41:19;12.32;;;6.45;;
22184;SDS011;11258;52.516;13.318;2022-07-21T03:43:45;9.48;;;5.90;;
22184;SDS011;11258;52.516;13.318;2022-07-21T03:46:11;8.57;;;6.88;;
22184;SDS011;11258;52.516;13.318;2022-07-21T03:48:37;10.82;;;6.32;;
22184;SDS011;11258;52.516;13.318;2022-07-21T03:51:03;10.25;;;6.03;;
22184;SDS011;11258;52.516;13.318;2022-07-21T03:53:29;8.70;;;6.10;;
22184;SDS011;11258;52.516;13.318;2022-07-21T03:55:55;10.57;;;5.22;;
22184;SDS011;11258;52.516;13.318;2022-07-21T03:58:21;9.02;;;5.97;;
22184;SDS011;11258;52.516;13.318;2022-07-21T04:00:46;7.80;;;5.95;;
22184;SDS011;11258;52.516;13.318;2022-07-21T04:03:12;7.20;;;5.40;;
22184;SDS011;11258;52.516;13.318;2022-07-21T04:05:38;7.18;;;5.80;;
22184;SDS011;11258;52.516;13.318;2022-07-21T04:08:05;7.80;;;5.93;;
22184;SDS011;11258;52.516;13.318;2022-07-21T04:10:34;7.97;;;5.95;;
22184;SDS011;11258;52.516;13.318;2022-07-21T04:13:01;11.40;;;6.25;;
22184;SDS011;11258;52.516;13.318;2022-07-21T04:15:28;8.65;;;6.03;;
22184;SDS011;11258;52.516;13.318;2022-07-21T04:17:54;7.32;;;5.50;;
22184;SDS011;11258;52.516;13.318;2022-07-21T04:20:20;8.35;;;5.43;;
22184;SDS011;11258;52.516;13.318;2022-07-21T04:22:46;7.43;;;5.53;;
22184;SDS011;11258;52.516;13.318;2022-07-21T04:25:13;9.40;;;5.53;;
22184;SDS011;11258;52.516;13.318;2022-07-21T04:27:40;9.30;;;5.43;;
22184;SDS011;11258;52.516;13.318;2022-07-21T04:30:07;9.50;;;5.50;;
22184;SDS011;11258;52.516;13.318;2022-07-21T04:32:34;12.50;;;6.30;;
22184;SDS011;11258;52.516;13.318;2022-07-21T04:35:00;10.18;;;6.03;;
22184;SDS011;11258;52.516;13.318;2022-07-21T04:37:26;8.07;;;5.18;;
22184;SDS011;11258;52.516;13.318;2022-07-21T04:39:52;7.65;;;5.95;;
22184;SDS011;11258;52.516;13.318;2022-07-21T04:42:17;17.00;;;6.03;;
22184;SDS011;11258;52.516;13.318;2022-07-21T04:44:43;11.15;;;5.50;;
22184;SDS011;11258;52.516;13.318;2022-07-21T04:47:08;7.65;;;6.28;;
22184;SDS011;11258;52.516;13.318;2022-07-21T04:49:34;13.88;;;8.00;;
22184;SDS011;11258;52.516;13.318;2022-07-21T04:52:00;10.65;;;8.38;;
22184;SDS011;11258;52.516;13.318;2022-07-21T04:54:25;13.75;;;9.77;;
22184;SDS011;11258;52.516;13.318;2022-07-21T04:56:51;13.50;;;10.50;;
22184;SDS011;11258;52.516;13.318;2022-07-21T04:59:16;17.13;;;11.57;;
22184;SDS011;11258;52.516;13.318;2022-07-21T05:01:42;16.58;;;13.13;;
22184;SDS011;11258;52.516;13.318;2022-07-21T05:04:08;17.00;;;13.07;;
22184;SDS011;11258;52.516;13.318;2022-07-21T05:06:33;21.48;;;13.20;;
22184;SDS011;11258;52.516;13.318;2022-07-21T05:08:59;16.65;;;14.15;;
22184;SDS011;11258;52.516;13.318;2022-07-21T05:11:25;21.35;;;14.38;;
22184;SDS011;11258;52.516;13.318;2022-07-21T05:13:50;21.77;;;14.95;;
22184;SDS011;11258;52.516;13.318;2022-07-21T05:16:16;19.63;;;16.73;;
22184;SDS011;11258;52.516;13.318;2022-07-21T05:18:42;18.23;;;15.80;;
22184;SDS011;11258;52.516;13.318;2022-07-21T05:21:07;20.05;;;15.65;;
22184;SDS011;11258;52.516;13.318;2022-07-21T05:23:33;111.82;;;20.88;;
22184;SDS011;11258;52.516;13.318;2022-07-21T05:25:58;22.02;;;15.10;;
22184;SDS011;11258;52.516;13.318;2022-07-21T05:28:24;49.05;;;17.80;;
22184;SDS011;11258;52.516;13.318;2022-07-21T05:30:51;33.75;;;15.95;;
22184;SDS011;11258;52.516;13.318;2022-07-21T05:33:17;20.05;;;15.73;;
22184;SDS011;11258;52.516;13.318;2022-07-21T05:35:42;17.45;;;15.55;;
22184;SDS011;11258;52.516;13.318;2022-07-21T05:38:08;22.08;;;16.23;;
22184;SDS011;11258;52.516;13.318;2022-07-21T05:40:33;22.40;;;16.83;;
22184;SDS011;11258;52.516;13.318;2022-07-21T05:42:59;19.67;;;17.58;;
22184;SDS011;11258;52.516;13.318;2022-07-21T05:45:24;18.50;;;16.50;;
22184;SDS011;11258;52.516;13.318;2022-07-21T05:47:50;22.92;;;16.65;;
22184;SDS011;11258;52.516;13.318;2022-07-21T05:50:16;18.90;;;14.57;;
22184;SDS011;11258;52.516;13.318;2022-07-21T05:52:41;17.88;;;15.80;;
22184;SDS011;11258;52.516;13.318;2022-07-21T05:55:07;23.92;;;16.63;;
22184;SDS011;11258;52.516;13.318;2022-07-21T05:57:33;28.40;;;16.40;;
22184;SDS011;11258;52.516;13.318;2022-07-21T05:59:58;21.35;;;16.27;;
22184;SDS011;11258;52.516;13.318;2022-07-21T06:02:24;20.63;;;15.65;;
22184;SDS011;11258;52.516;13.318;2022-07-21T06:04:51;20.80;;;16.08;;
22184;SDS011;11258;52.516;13.318;2022-07-21T06:07:17;24.38;;;15.52;;
22184;SDS011;11258;52.516;13.318;2022-07-21T06:09:43;23.38;;;16.17;;
22184;SDS011;11258;52.516;13.318;2022-07-21T06:12:08;20.98;;;15.77;;
22184;SDS011;11258;52.516;13.318;2022-07-21T06:14:34;45.40;;;18.13;;
22184;SDS011;11258;52.516;13.318;2022-07-21T06:17:00;18.23;;;15.50;;
22184;SDS011;11258;52.516;13.318;2022-07-21T06:19:25;27.60;;;15.65;;
22184;SDS011;11258;52.516;13.318;2022-07-21T06:21:51;44.30;;;17.38;;
22184;SDS011;11258;52.516;13.318;2022-07-21T06:24:16;19.00;;;15.70;;
22184;SDS011;11258;52.516;13.318;2022-07-21T06:26:44;27.20;;;15.60;;
22184;SDS011;11258;52.516;13.318;2022-07-21T06:29:10;16.55;;;14.88;;
22184;SDS011;11258;52.516;13.318;2022-07-21T06:31:35;25.17;;;15.70;;
22184;SDS011;11258;52.516;13.318;2022-07-21T06:34:01;41.17;;;18.40;;
22184;SDS011;11258;52.516;13.318;2022-07-21T06:36:27;48.85;;;19.20;;
22184;SDS011;11258;52.516;13.318;2022-07-21T06:38:53;54.15;;;18.88;;
22184;SDS011;11258;52.516;13.318;2022-07-21T06:41:18;38.13;;;18.15;;
22184;SDS011;11258;52.516;13.318;2022-07-21T06:43:44;19.38;;;15.05;;
22184;SDS011;11258;52.516;13.318;2022-07-21T06:46:09;19.38;;;14.27;;
22184;SDS011;11258;52.516;13.318;2022-07-21T06:48:35;15.75;;;14.00;;
22184;SDS011;11258;52.516;13.318;2022-07-21T06:51:00;16.45;;;13.85;;
22184;SDS011;11258;52.516;13.318;2022-07-21T06:53:26;38.08;;;15.38;;
22184;SDS011;11258;52.516;13.318;2022-07-21T06:55:52;21.35;;;15.02;;
22184;SDS011;11258;52.516;13.318;2022-07-21T06:58:19;36.50;;;15.27;;
22184;SDS011;11258;52.516;13.318;2022-07-21T07:00:47;44.55;;;16.08;;
22184;SDS011;11258;52.516;13.318;2022-07-21T07:03:13;85.97;;;18.88;;
22184;SDS011;11258;52.516;13.318;2022-07-21T07:05:40;21.83;;;14.68;;
22184;SDS011;11258;52.516;13.318;2022-07-21T07:08:06;15.38;;;13.77;;
22184;SDS011;11258;52.516;13.318;2022-07-21T07:10:32;42.78;;;15.43;;
22184;SDS011;11258;52.516;13.318;2022-07-21T07:12:58;32.95;;;14.45;;
22184;SDS011;11258;52.516;13.318;2022-07-21T07:15:23;23.35;;;13.50;;
22184;SDS011;11258;52.516;13.318;2022-07-21T07:17:50;15.40;;;13.82;;
22184;SDS011;11258;52.516;13.318;2022-07-21T07:20:16;16.70;;;14.25;;
22184;SDS011;11258;52.516;13.318;2022-07-21T07:22:42;15.10;;;13.60;;
22184;SDS011;11258;52.516;13.318;2022-07-21T07:25:08;14.93;;;13.40;;
22184;SDS011;11258;52.516;13.318;2022-07-21T07:27:34;18.08;;;13.23;;
22184;SDS011;11258;52.516;13.318;2022-07-21T07:30:00;14.35;;;12.88;;
22184;SDS011;11258;52.516;13.318;2022-07-21T07:32:26;14.07;;;12.57;;
22184;SDS011;11258;52.516;13.318;2022-07-21T07:34:52;21.52;;;13.48;;
22184;SDS011;11258;52.516;13.318;2022-07-21T07:37:18;14.25;;;12.35;;
22184;SDS011;11258;52.516;13.318;2022-07-21T07:39:43;14.05;;;12.60;;
22184;SDS011;11258;52.516;13.318;2022-07-21T07:42:09;13.43;;;11.95;;
22184;SDS011;11258;52.516;13.318;2022-07-21T07:44:34;14.60;;;11.75;;
22184;SDS011;11258;52.516;13.318;2022-07-21T07:47:00;15.00;;;12.20;;
22184;SDS011;11258;52.516;13.318;2022-07-21T07:49:31;13.00;;;11.68;;
22184;SDS011;11258;52.516;13.318;2022-07-21T07:51:57;18.73;;;16.98;;
22184;SDS011;11258;52.516;13.318;2022-07-21T07:54:23;16.67;;;14.98;;
22184;SDS011;11258;52.516;13.318;2022-07-21T07:56:49;13.73;;;12.45;;
22184;SDS011;11258;52.516;13.318;2022-07-21T07:59:15;13.65;;;11.38;;
22184;SDS011;11258;52.516;13.318;2022-07-21T08:01:41;13.77;;;12.35;;
22184;SDS011;11258;52.516;13.318;2022-07-21T08:04:07;18.63;;;14.35;;
22184;SDS011;11258;52.516;13.318;2022-07-21T08:06:32;12.98;;;11.50;;
22184;SDS011;11258;52.516;13.318;2022-07-21T08:08:58;13.52;;;11.27;;
22184;SDS011;11258;52.516;13.318;2022-07-21T08:11:24;12.45;;;11.10;;
22184;SDS011;11258;52.516;13.318;2022-07-21T08:13:50;14.63;;;11.90;;
22184;SDS011;11258;52.516;13.318;2022-07-21T08:16:16;15.23;;;11.48;;
22184;SDS011;11258;52.516;13.318;2022-07-21T08:18:42;12.18;;;10.88;;
22184;SDS011;11258;52.516;13.318;2022-07-21T08:21:08;19.27;;;11.38;;
22184;SDS011;11258;52.516;13.318;2022-07-21T08:23:35;24.90;;;11.82;;
22184;SDS011;11258;52.516;13.318;2022-07-21T08:26:01;46.97;;;13.93;;
22184;SDS011;11258;52.516;13.318;2022-07-21T08:28:26;15.27;;;11.18;;
22184;SDS011;11258;52.516;13.318;2022-07-21T08:30:52;60.85;;;14.93;;
22184;SDS011;11258;52.516;13.318;2022-07-21T08:33:17;14.57;;;11.38;;
22184;SDS011;11258;52.516;13.318;2022-07-21T08:35:43;18.67;;;11.25;;
22184;SDS011;11258;52.516;13.318;2022-07-21T08:38:09;13.23;;;10.32;;
22184;SDS011;11258;52.516;13.318;2022-07-21T08:40:37;12.32;;;10.75;;
22184;SDS011;11258;52.516;13.318;2022-07-21T08:43:08;13.10;;;10.77;;
22184;SDS011;11258;52.516;13.318;2022-07-21T08:45:35;16.73;;;11.43;;
22184;SDS011;11258;52.516;13.318;2022-07-21T08:48:01;16.05;;;10.25;;
22184;SDS011;11258;52.516;13.318;2022-07-21T08:50:29;13.48;;;10.88;;
22184;SDS011;11258;52.516;13.318;2022-07-21T08:52:56;12.30;;;9.85;;
22184;SDS011;11258;52.516;13.318;2022-07-21T08:55:22;15.57;;;10.02;;
22184;SDS011;11258;52.516;13.318;2022-07-21T08:57:48;13.13;;;9.93;;
22184;SDS011;11258;52.516;13.318;2022-07-21T09:00:14;23.17;;;11.38;;
22184;SDS011;11258;52.516;13.318;2022-07-21T09:02:39;13.05;;;9.48;;
22184;SDS011;11258;52.516;13.318;2022-07-21T09:05:06;11.52;;;9.75;;
22184;SDS011;11258;52.516;13.318;2022-07-21T09:07:46;14.13;;;10.25;;
22184;SDS011;11258;52.516;13.318;2022-07-21T09:10:12;13.02;;;10.52;;
22184;SDS011;11258;52.516;13.318;2022-07-21T09:12:51;21.92;;;10.40;;
22184;SDS011;11258;52.516;13.318;2022-07-21T09:15:25;12.57;;;9.05;;
22184;SDS011;11258;52.516;13.318;2022-07-21T09:18:08;20.15;;;9.60;;
22184;SDS011;11258;52.516;13.318;2022-07-21T09:20:39;12.25;;;9.45;;
22184;SDS011;11258;52.516;13.318;2022-07-21T09:23:16;14.15;;;9.07;;
22184;SDS011;11258;52.516;13.318;2022-07-21T09:25:47;12.15;;;8.68;;
22184;SDS011;11258;52.516;13.318;2022-07-21T09:28:18;9.88;;;8.75;;
22184;SDS011;11258;52.516;13.318;2022-07-21T09:30:48;17.05;;;9.05;;
22184;SDS011;11258;52.516;13.318;2022-07-21T09:38:50;12.27;;;8.80;;
22184;SDS011;11258;52.516;13.318;2022-07-21T09:41:21;9.13;;;8.05;;
22184;SDS011;11258;52.516;13.318;2022-07-21T09:43:49;11.68;;;8.48;;
22184;SDS011;11258;52.516;13.318;2022-07-21T09:48:54;8.40;;;7.55;;
22184;SDS011;11258;52.516;13.318;2022-07-21T09:51:32;13.65;;;7.65;;
22184;SDS011;11258;52.516;13.318;2022-07-21T09:54:06;15.23;;;8.43;;
22184;SDS011;11258;52.516;13.318;2022-07-21T09:56:40;10.65;;;8.40;;
22184;SDS011;11258;52.516;13.318;2022-07-21T09:59:08;17.13;;;8.50;;
22184;SDS011;11258;52.516;13.318;2022-07-21T10:01:35;12.75;;;8.75;;
22184;SDS011;11258;52.516;13.318;2022-07-21T10:04:02;14.23;;;8.02;;
22184;SDS011;11258;52.516;13.318;2022-07-21T10:06:29;13.38;;;8.98;;
22184;SDS011;11258;52.516;13.318;2022-07-21T10:08:58;11.93;;;7.90;;
22184;SDS011;11258;52.516;13.318;2022-07-21T10:11:25;11.98;;;8.93;;
22184;SDS011;11258;52.516;13.318;2022-07-21T10:13:52;8.73;;;7.57;;
22184;SDS011;11258;52.516;13.318;2022-07-21T10:16:18;10.30;;;7.40;;
22184;SDS011;11258;52.516;13.318;2022-07-21T10:21:41;8.98;;;6.70;;
22184;SDS011;11258;52.516;13.318;2022-07-21T10:24:11;9.15;;;6.53;;
22184;SDS011;11258;52.516;13.318;2022-07-21T10:32:19;9.80;;;6.93;;
22184;SDS011;11258;52.516;13.318;2022-07-21T10:34:53;12.68;;;6.57;;
22184;SDS011;11258;52.516;13.318;2022-07-21T10:40:04;11.60;;;6.95;;
22184;SDS011;11258;52.516;13.318;2022-07-21T10:42:45;7.03;;;6.32;;
22184;SDS011;11258;52.516;13.318;2022-07-21T10:45:35;8.32;;;6.43;;
22184;SDS011;11258;52.516;13.318;2022-07-21T10:48:06;14.25;;;10.15;;
22184;SDS011;11258;52.516;13.318;2022-07-21T10:50:37;14.23;;;7.93;;
22184;SDS011;11258;52.516;13.318;2022-07-21T10:53:14;7.18;;;5.70;;
22184;SDS011;11258;52.516;13.318;2022-07-21T11:03:41;15.90;;;5.80;;
22184;SDS011;11258;52.516;13.318;2022-07-21T11:06:26;6.88;;;5.78;;
22184;SDS011;11258;52.516;13.318;2022-07-21T11:11:32;9.57;;;5.55;;
22184;SDS011;11258;52.516;13.318;2022-07-21T11:14:19;7.80;;;4.82;;
22184;SDS011;11258;52.516;13.318;2022-07-21T11:22:08;8.20;;;6.70;;
22184;SDS011;11258;52.516;13.318;2022-07-21T11:24:34;14.00;;;7.07;;
22184;SDS011;11258;52.516;13.318;2022-07-21T11:27:10;11.60;;;5.50;;
22184;SDS011;11258;52.516;13.318;2022-07-21T11:29:47;14.02;;;5.78;;
22184;SDS011;11258;52.516;13.318;2022-07-21T11:32:17;7.28;;;5.15;;
22184;SDS011;11258;52.516;13.318;2022-07-21T11:34:50;8.18;;;5.50;;
22184;SDS011;11258;52.516;13.318;2022-07-21T11:39:57;9.98;;;5.97;;
22184;SDS011;11258;52.516;13.318;2022-07-21T11:42:24;8.10;;;5.57;;
22184;SDS011;11258;52.516;13.318;2022-07-21T11:44:50;9.77;;;5.88;;
22184;SDS011;11258;52.516;13.318;2022-07-21T11:47:16;7.95;;;5.70;;
22184;SDS011;11258;52.516;13.318;2022-07-21T11:49:42;7.88;;;6.00;;
22184;SDS011;11258;52.516;13.318;2022-07-21T11:52:17;7.40;;;5.75;;
22184;SDS011;11258;52.516;13.318;2022-07-21T11:57:12;13.05;;;6.22;;
22184;SDS011;11258;52.516;13.318;2022-07-21T11:59:38;22.67;;;7.72;;
22184;SDS011;11258;52.516;13.318;2022-07-21T12:02:12;20.48;;;7.65;;
22184;SDS011;11258;52.516;13.318;2022-07-21T12:04:59;7.72;;;5.82;;
22184;SDS011;11258;52.516;13.318;2022-07-21T12:09:53;11.90;;;5.85;;
22184;SDS011;11258;52.516;13.318;2022-07-21T12:12:43;12.10;;;5.97;;
22184;SDS011;11258;52.516;13.318;2022-07-21T12:15:20;10.65;;;5.15;;
22184;SDS011;11258;52.516;13.318;2022-07-21T12:17:57;8.35;;;5.60;;
22184;SDS011;11258;52.516;13.318;2022-07-21T12:20:29;11.25;;;6.65;;
22184;SDS011;11258;52.516;13.318;2022-07-21T12:22:56;7.00;;;5.43;;
22184;SDS011;11258;52.516;13.318;2022-07-21T12:25:32;10.68;;;6.70;;
22184;SDS011;11258;52.516;13.318;2022-07-21T12:28:00;8.18;;;6.13;;
22184;SDS011;11258;52.516;13.318;2022-07-21T12:33:16;10.65;;;5.90;;
22184;SDS011;11258;52.516;13.318;2022-07-21T12:35:52;8.82;;;5.90;;
22184;SDS011;11258;52.516;13.318;2022-07-21T12:41:21;9.88;;;6.63;;
22184;SDS011;11258;52.516;13.318;2022-07-21T12:44:00;10.48;;;6.20;;
22184;SDS011;11258;52.516;13.318;2022-07-21T12:46:33;15.82;;;7.18;;
22184;SDS011;11258;52.516;13.318;2022-07-21T12:49:04;14.40;;;7.65;;
22184;SDS011;11258;52.516;13.318;2022-07-21T12:51:34;15.68;;;7.60;;
22184;SDS011;11258;52.516;13.318;2022-07-21T12:54:00;11.98;;;7.05;;
22184;SDS011;11258;52.516;13.318;2022-07-21T12:56:27;12.30;;;7.03;;
22184;SDS011;11258;52.516;13.318;2022-07-21T12:58:55;8.38;;;6.32;;
22184;SDS011;11258;52.516;13.318;2022-07-21T13:01:23;27.23;;;8.02;;
22184;SDS011;11258;52.516;13.318;2022-07-21T13:03:50;42.97;;;9.70;;
22184;SDS011;11258;52.516;13.318;2022-07-21T13:06:17;28.52;;;8.68;;
22184;SDS011;11258;52.516;13.318;2022-07-21T13:08:43;56.38;;;11.18;;
22184;SDS011;11258;52.516;13.318;2022-07-21T13:11:12;9.20;;;6.45;;
22184;SDS011;11258;52.516;13.318;2022-07-21T13:13:41;16.20;;;7.85;;
22184;SDS011;11258;52.516;13.318;2022-07-21T13:16:07;9.65;;;7.25;;
22184;SDS011;11258;52.516;13.318;2022-07-21T13:18:33;7.57;;;6.35;;
22184;SDS011;11258;52.516;13.318;2022-07-21T13:20:59;7.88;;;6.03;;
22184;SDS011;11258;52.516;13.318;2022-07-21T13:23:25;7.78;;;6.43;;
22184;SDS011;11258;52.516;13.318;2022-07-21T13:25:51;8.52;;;6.32;;
22184;SDS011;11258;52.516;13.318;2022-07-21T13:28:17;11.10;;;6.50;;
22184;SDS011;11258;52.516;13.318;2022-07-21T13:30:44;7.07;;;6.00;;
22184;SDS011;11258;52.516;13.318;2022-07-21T13:33:11;11.63;;;7.25;;
22184;SDS011;11258;52.516;13.318;2022-07-21T13:35:36;6.30;;;5.70;;
22184;SDS011;11258;52.516;13.318;2022-07-21T13:38:02;8.98;;;6.55;;
22184;SDS011;11258;52.516;13.318;2022-07-21T13:40:28;7.05;;;5.93;;
22184;SDS011;11258;52.516;13.318;2022-07-21T13:42:54;8.68;;;6.20;;
22184;SDS011;11258;52.516;13.318;2022-07-21T13:45:20;6.72;;;6.03;;
22184;SDS011;11258;52.516;13.318;2022-07-21T13:47:45;8.63;;;6.50;;
22184;SDS011;11258;52.516;13.318;2022-07-21T13:50:11;7.47;;;6.68;;
22184;SDS011;11258;52.516;13.318;2022-07-21T13:52:37;13.77;;;9.15;;
22184;SDS011;11258;52.516;13.318;2022-07-21T13:55:05;9.77;;;6.90;;
22184;SDS011;11258;52.516;13.318;2022-07-21T13:57:31;7.13;;;5.82;;
22184;SDS011;11258;52.516;13.318;2022-07-21T14:03:49;8.10;;;6.65;;
22184;SDS011;11258;52.516;13.318;2022-07-21T14:06:15;8.80;;;6.70;;
22184;SDS011;11258;52.516;13.318;2022-07-21T14:08:42;7.05;;;6.28;;
22184;SDS011;11258;52.516;13.318;2022-07-21T14:11:08;7.80;;;6.85;;
22184;SDS011;11258;52.516;13.318;2022-07-21T14:13:33;10.63;;;6.55;;
22184;SDS011;11258;52.516;13.318;2022-07-21T14:16:00;9.63;;;6.35;;
22184;SDS011;11258;52.516;13.318;2022-07-21T14:18:26;7.82;;;6.70;;
22184;SDS011;11258;52.516;13.318;2022-07-21T14:20:51;7.13;;;6.43;;
22184;SDS011;11258;52.516;13.318;2022-07-21T14:23:20;7.25;;;5.32;;
22184;SDS011;11258;52.516;13.318;2022-07-21T14:25:47;6.57;;;5.88;;
22184;SDS011;11258;52.516;13.318;2022-07-21T14:28:13;7.05;;;6.32;;
22184;SDS011;11258;52.516;13.318;2022-07-21T14:30:38;6.30;;;5.70;;
22184;SDS011;11258;52.516;13.318;2022-07-21T14:33:04;6.20;;;5.60;;
22184;SDS011;11258;52.516;13.318;2022-07-21T14:35:30;7.63;;;5.80;;
22184;SDS011;11258;52.516;13.318;2022-07-21T14:37:56;8.27;;;6.40;;
22184;SDS011;11258;52.516;13.318;2022-07-21T14:40:22;6.78;;;6.10;;
22184;SDS011;11258;52.516;13.318;2022-07-21T14:42:47;6.57;;;5.93;;
22184;SDS011;11258;52.516;13.318;2022-07-21T14:45:16;6.50;;;5.90;;
22184;SDS011;11258;52.516;13.318;2022-07-21T14:47:42;6.47;;;5.82;;
22184;SDS011;11258;52.516;13.318;2022-07-21T14:50:08;7.13;;;5.95;;
22184;SDS011;11258;52.516;13.318;2022-07-21T14:52:33;7.03;;;6.30;;
22184;SDS011;11258;52.516;13.318;2022-07-21T14:54:59;8.40;;;6.30;;
22184;SDS011;11258;52.516;13.318;2022-07-21T14:57:25;9.18;;;6.13;;
22184;SDS011;11258;52.516;13.318;2022-07-21T14:59:50;5.90;;;5.30;;
22184;SDS011;11258;52.516;13.318;2022-07-21T15:02:16;6.78;;;5.88;;
22184;SDS011;11258;52.516;13.318;2022-07-21T15:04:41;6.18;;;5.22;;
22184;SDS011;11258;52.516;13.318;2022-07-21T15:07:07;6.35;;;5.57;;
22184;SDS011;11258;52.516;13.318;2022-07-21T15:09:32;9.27;;;5.68;;
22184;SDS011;11258;52.516;13.318;2022-07-21T15:11:58;8.88;;;5.55;;
22184;SDS011;11258;52.516;13.318;2022-07-21T15:14:24;8.02;;;5.47;;
22184;SDS011;11258;52.516;13.318;2022-07-21T15:16:50;6.93;;;6.22;;
22184;SDS011;11258;52.516;13.318;2022-07-21T15:19:15;8.75;;;6.82;;